Greensboro, North Carolina
Current Conditions -  °F | °C
As of 2:54 AM on Friday 28 Nov 2014 (Local Time) from KGSO Reporting Station
Broken Clouds Broken Clouds  
Wind Chill: -6°   Ceiling: 4900
Heat Index: -2°   Visibility: 10mi
Dew Point: -7°   Wind: 7mph
Humidity: 69%   Direction: 290°WNW
Pressure: 30.28"   Gusts: NA
Location:  36.07°N, 79.79°W
Report Text: KGSO 280754Z 29006KT 10SM BKN049 M02/M07 A3028 RMK AO2 SLP259 T10221072 $
Loading
Personal Weather Stations






























Interactive Weather Map New forecast layout! Learn more

10-Day Weather Forecast

Advertisements
Track Severe Weather on mobile